LOWSLIEE

Guest
Details From LOWS - Salzburg Maxglan
To LIEE - Cagliari Elmas
Flight Number -
Tags Generated
Created
Modified
Stats Distance 541 nm / 1,002 km
Max Altitude 0 ft / 0 m
Waypoints 4
Social Downloads 0
Likes 0
Share VATSIM

Download

Looking for another format? Having issues loading an existing format? Contact us
Advertisement - Login to hide

Notes

Generated

Route

LOWS TOSCO CAG01 LIEE

ID Type Via Altitude Latitude Longitude Leg Dist Tot Dist Heading (true) Name
O LOWS APT - 0 ft / 0 m 47.80472˚ 12.99717˚ - 0 nm - -
TOSCO FIX - 0 ft / 0 m 43.59274˚ 10.90493˚ 267 nm 267 nm 200° / 198° -
CAG01 FIX - 0 ft / 0 m 39.26216˚ 9.04088˚ 273 nm 540 nm 199° / 197° -
O LIEE APT - 0 ft / 0 m 39.26081˚ 9.04347˚ 0 nm 541 nm 124° / 124° -

Altitude Profile

Advertisement - Login to hide

Weather


0- 5 10 15 20 25 30 35+ Temperature / ° C

Clouds and Precipitation
Forecast for 2017-12-15 06:00 UTC. Updated an hour ago

Ground ~20,000 ft ~40,000 ft Winds

LOWS

Details ICAO LOWS (SZG)
Name Salzburg Maxglan
Region Austria
Timezone Europe/Vienna (UTC+1.0)
Stats Elevation 1,411 ft / 430 m (AMSL)
Location 47.793333° 13.004333°
Runways 1
Magnetic Variation 3.427° E

METAR

LOWS 150420Z AUTO VRB02KT 3800 -RASN FEW003 BKN008 01/00 Q0998

Decode

TAF

TAF TAF AMD LOWS 150421Z 1504/1524 15006KT 9999 SCT060 BKN090 TX05/1512Z TN00/1521Z TEMPO 1504/1506 SHRA SCT025 BKN030 PROB40 TEMPO 1504/1506 4000 SNRA FEW005 BKN012 BECMG 1508/1510 03005KT FEW060 SCT100 BECMG 1516/1518 15005KT CAVOK

Decode

Departure Runways

ID Width Length Bearing (true) Bearing (mag) Surface Threshold Offset Overrun Length
16 148 ft / 45 m 9,024 ft / 2,751 m 157.08° 153.65° Concrete 656 ft / 200 m 0 ft / 0 m
34 148 ft / 45 m 9,024 ft / 2,751 m 337.09° 333.66° Concrete 787 ft / 240 m 0 ft / 0 m

LIEE

Details ICAO LIEE (CAG)
Name Cagliari Elmas
Region Italy
Timezone Europe/Rome (UTC+1.0)
Stats Elevation 13 ft / 4 m (AMSL)
Location 39.251475° 9.054291°
Runways 1
Magnetic Variation 2.298° E

METAR

LIEE 150420Z VRB03KT 9999 BKN030 14/12 Q1011

Decode

TAF

TAF LIEE 142300Z 1500/1524 23010KT 9999 BKN030 TEMPO 1514/1524 RA= TAF LIEO 142300Z 1500/1524 22015KT 9999 SCT030 TEMPO 1503/1516 4000 RA

Decode

Destination Runways

ID Width Length Bearing (true) Bearing (mag) Surface Threshold Offset Overrun Length
14 148 ft / 45 m 9,157 ft / 2,791 m 138.08° 135.78° Asphalt 0 ft / 0 m 187 ft / 57 m
32 148 ft / 45 m 9,157 ft / 2,791 m 318.09° 315.79° Asphalt 0 ft / 0 m 0 ft / 0 m

Approach Navaids

Runway Type Ident Frequency Range Bearing (true) Bearing (mag) Slope Elevation
32 Localiser IEL 109.50 MHz 18 nm / 33 km 318.12° 315.82° - 7 ft / 2 m (AMSL)
32 Glidescope IEL 109.50 MHz 10 nm / 19 km 318.08° 315.79° 3.00° 9 ft / 3 m (AMSL)
32 DME IEL 109.50 MHz 18 nm / 33 km - - - 26 ft / 8 m (AMSL)

Popular Alternatives